createdAt,value
2022-10-25T00:03:56.731Z,15.10
2022-10-25T00:08:59.596Z,15.10
2022-10-25T00:14:20.668Z,15.00
2022-10-25T00:19:23.670Z,15.00
2022-10-25T00:24:26.507Z,14.90
2022-10-25T00:29:29.387Z,14.90
2022-10-25T00:34:32.399Z,14.90
2022-10-25T00:39:35.200Z,14.90
2022-10-25T00:44:41.047Z,14.80
2022-10-25T00:49:44.321Z,14.80
2022-10-25T00:54:50.546Z,14.80
2022-10-25T00:59:53.899Z,14.80
2022-10-25T01:04:56.867Z,14.80
2022-10-25T01:09:59.734Z,14.80
2022-10-25T01:15:03.024Z,14.80
2022-10-25T01:20:45.859Z,14.80
2022-10-25T01:25:55.688Z,14.90
2022-10-25T01:31:32.970Z,14.90
2022-10-25T01:36:43.733Z,14.90
2022-10-25T01:42:00.431Z,14.90
2022-10-25T01:47:06.731Z,15.00
2022-10-25T01:52:09.548Z,15.00
2022-10-25T01:58:11.415Z,15.00
2022-10-25T02:03:22.747Z,15.00
2022-10-25T02:08:50.546Z,15.10
2022-10-25T02:14:15.539Z,15.10
2022-10-25T02:19:23.658Z,15.20
2022-10-25T02:24:28.414Z,15.20
2022-10-25T02:29:32.729Z,15.20
2022-10-25T02:34:35.463Z,15.20
2022-10-25T02:39:38.288Z,15.10
2022-10-25T02:44:58.905Z,15.10
2022-10-25T02:50:01.776Z,15.00
2022-10-25T02:55:04.884Z,14.90
2022-10-25T03:00:08.548Z,14.80
2022-10-25T03:05:11.355Z,14.70
2022-10-25T03:10:14.124Z,14.60
2022-10-25T03:15:16.894Z,14.60
2022-10-25T03:20:19.803Z,14.60
2022-10-25T03:25:22.526Z,14.70
2022-10-25T03:30:26.343Z,14.80
2022-10-25T03:35:29.158Z,14.80
2022-10-25T03:40:32.134Z,14.90
2022-10-25T03:45:34.845Z,14.90
2022-10-25T03:50:37.742Z,15.00
2022-10-25T03:55:40.566Z,15.00
2022-10-25T04:00:43.462Z,15.00
2022-10-25T04:05:46.294Z,15.00
2022-10-25T04:10:49.006Z,15.00
2022-10-25T04:15:51.754Z,14.90
2022-10-25T04:20:58.467Z,15.00
2022-10-25T04:26:01.251Z,14.90
2022-10-25T04:31:04.280Z,14.90
2022-10-25T04:36:07.338Z,14.90
2022-10-25T04:41:10.256Z,15.00
2022-10-25T04:46:13.628Z,15.00
2022-10-25T04:51:16.626Z,15.00
2022-10-25T04:56:19.386Z,15.10
2022-10-25T05:01:22.271Z,15.10
2022-10-25T05:06:26.852Z,15.10
2022-10-25T05:11:29.790Z,15.20
2022-10-25T05:16:35.131Z,15.30
2022-10-25T05:21:37.997Z,15.20
2022-10-25T05:26:40.705Z,15.20
2022-10-25T05:31:44.083Z,15.30
2022-10-25T05:36:47.010Z,15.30
2022-10-25T05:41:50.231Z,15.40
2022-10-25T05:46:53.247Z,15.40
2022-10-25T05:51:56.035Z,15.50
2022-10-25T05:56:58.878Z,15.50
2022-10-25T06:02:01.836Z,15.50
2022-10-25T06:07:04.990Z,15.60
2022-10-25T06:12:09.603Z,15.60
2022-10-25T06:17:13.776Z,15.60
2022-10-25T06:22:16.573Z,15.60
2022-10-25T06:27:19.372Z,15.50
2022-10-25T06:32:21.914Z,15.50
2022-10-25T06:37:24.900Z,15.50
2022-10-25T06:42:27.588Z,15.40
2022-10-25T06:47:30.345Z,15.40
2022-10-25T06:52:33.167Z,15.40
2022-10-25T06:57:35.905Z,15.40
2022-10-25T07:02:38.667Z,15.40
2022-10-25T07:07:41.484Z,15.50
2022-10-25T07:12:44.289Z,15.50
2022-10-25T07:17:47.363Z,15.50
2022-10-25T07:22:50.317Z,15.60
2022-10-25T07:27:53.226Z,15.60
2022-10-25T07:32:56.456Z,15.60
2022-10-25T07:37:59.315Z,15.60
2022-10-25T07:43:02.069Z,15.60
2022-10-25T07:48:05.305Z,15.60
2022-10-25T07:53:08.339Z,15.60
2022-10-25T07:58:12.122Z,15.70
2022-10-25T08:03:16.307Z,15.80
2022-10-25T08:08:20.959Z,15.80
2022-10-25T08:13:23.947Z,16.00
2022-10-25T08:18:26.885Z,16.10
2022-10-25T08:23:31.648Z,16.20
2022-10-25T08:28:34.676Z,16.20
2022-10-25T08:33:37.414Z,16.20
2022-10-25T08:38:40.173Z,16.20
2022-10-25T08:44:12.048Z,16.20
2022-10-25T08:49:44.200Z,16.30
2022-10-25T08:54:47.403Z,16.30
2022-10-25T08:59:55.285Z,16.30
2022-10-25T09:04:58.131Z,16.30
2022-10-25T09:10:00.859Z,16.30
2022-10-25T09:15:21.782Z,16.30
2022-10-25T09:20:33.001Z,16.30
2022-10-25T09:26:02.538Z,16.30
2022-10-25T09:31:08.281Z,16.30
2022-10-25T09:36:12.491Z,16.30
2022-10-25T09:41:24.842Z,16.30
2022-10-25T09:46:38.175Z,16.40
2022-10-25T09:51:57.566Z,16.40
2022-10-25T09:57:00.360Z,16.50
2022-10-25T10:02:03.732Z,16.50
2022-10-25T10:07:16.812Z,16.60
2022-10-25T10:12:51.570Z,16.60
2022-10-25T10:18:20.881Z,16.70
2022-10-25T10:23:24.454Z,16.70
2022-10-25T10:28:27.102Z,16.70
2022-10-25T10:33:32.392Z,16.60
2022-10-25T10:38:52.892Z,16.50
2022-10-25T10:44:14.508Z,16.50
2022-10-25T10:49:18.890Z,16.60
2022-10-25T10:54:25.467Z,16.70
2022-10-25T10:59:34.788Z,16.90
2022-10-25T11:04:55.217Z,17.30
2022-10-25T11:10:15.961Z,17.50
2022-10-25T11:15:18.750Z,18.00
2022-10-25T11:20:26.623Z,18.50
2022-10-25T11:25:38.589Z,18.70
2022-10-25T11:31:19.688Z,18.90
2022-10-25T11:36:48.943Z,19.10
2022-10-25T11:41:55.514Z,19.20
2022-10-25T11:47:32.351Z,19.10
2022-10-25T11:53:00.069Z,19.10
2022-10-25T11:58:30.358Z,19.10
2022-10-25T12:03:48.008Z,19.20
2022-10-25T12:09:09.518Z,19.20
2022-10-25T12:14:15.349Z,19.20
2022-10-25T12:19:24.580Z,19.30
2022-10-25T12:24:34.785Z,19.30
2022-10-25T12:29:41.439Z,19.30
2022-10-25T12:34:48.002Z,19.30
2022-10-25T12:39:52.337Z,19.20
2022-10-25T12:45:12.176Z,19.20
2022-10-25T12:50:50.636Z,19.20
2022-10-25T12:55:56.702Z,19.20
2022-10-25T13:01:21.317Z,19.20
2022-10-25T13:06:29.903Z,19.30
2022-10-25T13:11:42.166Z,19.30
2022-10-25T13:16:45.087Z,19.30
2022-10-25T13:21:53.888Z,19.40
2022-10-25T13:27:14.946Z,19.40
2022-10-25T13:32:20.325Z,19.40
2022-10-25T13:37:33.086Z,19.50
2022-10-25T13:42:37.707Z,19.50
2022-10-25T13:47:45.578Z,19.50
2022-10-25T13:52:56.015Z,19.60
2022-10-25T13:58:02.013Z,19.60
2022-10-25T14:03:13.091Z,19.60
2022-10-25T14:08:46.847Z,19.50
2022-10-25T14:13:58.294Z,19.50
2022-10-25T14:19:15.074Z,19.50
2022-10-25T14:24:19.561Z,19.40
2022-10-25T14:29:24.021Z,19.30
2022-10-25T14:34:28.547Z,19.30
2022-10-25T14:39:31.933Z,19.20
2022-10-25T14:44:46.731Z,19.20
2022-10-25T14:49:49.450Z,19.10
2022-10-25T14:54:59.573Z,19.00
2022-10-25T15:00:04.634Z,18.90
2022-10-25T15:05:17.363Z,18.80
2022-10-25T15:10:43.422Z,18.70
2022-10-25T15:15:47.986Z,18.60
2022-10-25T15:21:21.556Z,18.50
2022-10-25T15:26:34.623Z,18.40
2022-10-25T15:31:43.868Z,18.10
2022-10-25T15:36:46.932Z,17.90
2022-10-25T15:41:50.189Z,17.70
2022-10-25T15:46:52.845Z,17.50
2022-10-25T15:51:56.217Z,17.20
2022-10-25T15:56:58.997Z,17.00
2022-10-25T16:02:03.465Z,16.80
2022-10-25T16:07:06.186Z,16.50
2022-10-25T16:12:14.121Z,16.30
2022-10-25T16:17:16.890Z,16.10
2022-10-25T16:22:19.563Z,15.80
2022-10-25T16:27:22.362Z,15.60
2022-10-25T16:32:25.169Z,15.40
2022-10-25T16:37:27.956Z,15.30
2022-10-25T16:42:33.262Z,15.20
2022-10-25T16:47:39.680Z,15.10
2022-10-25T16:52:42.491Z,15.10
2022-10-25T16:57:45.781Z,15.10
2022-10-25T17:02:48.950Z,15.10
2022-10-25T17:07:52.203Z,15.10
2022-10-25T17:13:01.641Z,14.90
2022-10-25T17:18:04.783Z,14.80
2022-10-25T17:23:07.654Z,14.60
2022-10-25T17:28:10.426Z,14.50
2022-10-25T17:33:13.337Z,14.50
2022-10-25T17:38:16.150Z,14.50
2022-10-25T17:43:19.552Z,14.50
2022-10-25T17:48:22.447Z,14.60
2022-10-25T17:53:25.314Z,14.70
2022-10-25T17:58:28.083Z,14.70
2022-10-25T18:03:31.568Z,14.90
2022-10-25T18:08:36.416Z,14.90
2022-10-25T18:13:40.808Z,14.90
2022-10-25T18:18:43.684Z,14.90
2022-10-25T18:23:46.477Z,14.90
2022-10-25T18:28:50.170Z,14.80
2022-10-25T18:33:55.418Z,14.80
2022-10-25T18:38:58.272Z,14.90
2022-10-25T18:44:02.959Z,15.00
2022-10-25T18:49:05.781Z,15.00
2022-10-25T18:54:10.195Z,15.10
2022-10-25T18:59:13.070Z,15.10
2022-10-25T19:04:15.819Z,15.10
2022-10-25T19:09:18.551Z,15.20
2022-10-25T19:14:21.428Z,15.20
2022-10-25T19:19:24.047Z,15.10
2022-10-25T19:24:26.843Z,15.10
2022-10-25T19:29:29.543Z,14.90
2022-10-25T19:34:32.298Z,14.80
2022-10-25T19:39:36.052Z,14.70
2022-10-25T19:44:39.344Z,14.60
2022-10-25T19:49:42.353Z,14.50
2022-10-25T19:54:45.126Z,14.30
2022-10-25T19:59:47.913Z,14.30
2022-10-25T20:04:50.768Z,14.20
2022-10-25T20:09:53.708Z,14.20
2022-10-25T20:14:57.590Z,14.20
2022-10-25T20:20:00.390Z,14.20
2022-10-25T20:25:04.690Z,14.10
2022-10-25T20:30:07.837Z,13.90
2022-10-25T20:35:10.595Z,13.80
2022-10-25T20:40:13.406Z,13.60
2022-10-25T20:45:16.025Z,13.50
2022-10-25T20:50:18.759Z,13.30
2022-10-25T20:55:22.858Z,13.20
2022-10-25T21:00:25.625Z,13.00
2022-10-25T21:05:28.481Z,12.80
2022-10-25T21:10:31.273Z,12.60
2022-10-25T21:15:34.947Z,12.50
2022-10-25T21:20:37.720Z,12.50
2022-10-25T21:25:41.042Z,12.40
2022-10-25T21:30:46.005Z,12.40
2022-10-25T21:35:48.829Z,12.30
2022-10-25T21:40:51.692Z,12.30
2022-10-25T21:45:58.938Z,12.50
2022-10-25T21:51:01.887Z,12.90
2022-10-25T21:56:15.238Z,13.30
2022-10-25T22:01:21.669Z,13.60
2022-10-25T22:06:27.221Z,13.80
2022-10-25T22:11:32.678Z,14.10
2022-10-25T22:16:36.083Z,14.30
2022-10-25T22:21:39.929Z,14.40
2022-10-25T22:26:44.466Z,14.40
2022-10-25T22:31:47.246Z,14.20
2022-10-25T22:36:50.062Z,13.80
2022-10-25T22:41:53.921Z,13.50
2022-10-25T22:46:56.516Z,13.20
2022-10-25T22:51:59.538Z,13.00
2022-10-25T22:57:02.330Z,12.70
2022-10-25T23:02:05.091Z,12.50
2022-10-25T23:07:07.603Z,12.40
2022-10-25T23:12:10.324Z,12.20
2022-10-25T23:17:13.218Z,12.10
2022-10-25T23:22:16.063Z,12.00
2022-10-25T23:27:18.767Z,11.80
2022-10-25T23:32:21.536Z,11.70
2022-10-25T23:37:24.218Z,11.60
2022-10-25T23:42:26.978Z,11.60
2022-10-25T23:47:31.066Z,11.50
2022-10-25T23:52:34.036Z,11.50
2022-10-25T23:57:36.594Z,11.40
